Google Maps JavaScript API Example
Pilot Flight Report # 93033 Submitted by : AST775 on 2019-06-11
Date: 2019-06-11Aircraft: Howard 500
Flight No.: Not AvailableDistance (Nm): 456.14
Departure: KNQX - Key West NASDestination: MUGM - Guantanamo Bay NAS
 TimeFuelWeightSpeeds  
Out (Taxi)1043Z6318 lbs30617 lbs Flight RulesVFR
Off (Takeoff)1043Z 30617 lbsFlight Level12500
On (Landing)1224Z 26155 lbs96 ktsVSTD-151 ft/min
In (Ramp)1224Z1854 lbs26155 lbs ZFW24300 lbs
Flight1.70  -  1:414452 lbs  Pax0
Block1.68  -  1:414464 lbs  Cargo0
Departure Weather251121Z 06611KT 58SM SKC 25/20 A3003
Destination WeatherMUGM 251224Z 11812KT 46SM FEW030 SCT130 29/27 A2992
Flight Commentsjune leg 14 KNQX-MUGM